sensor_id;sensor_type;location;lat;lon;timestamp;P1;durP1;ratioP1;P2;durP2;ratioP2
142;SDS011;63667;49.046;8.468;2023-07-30T00:00:50;3.47;;;2.30;;
142;SDS011;63667;49.046;8.468;2023-07-30T00:03:18;5.70;;;1.80;;
142;SDS011;63667;49.046;8.468;2023-07-30T00:05:54;2.10;;;1.80;;
142;SDS011;63667;49.046;8.468;2023-07-30T00:08:22;2.97;;;2.03;;
142;SDS011;63667;49.046;8.468;2023-07-30T00:10:50;3.20;;;2.10;;
142;SDS011;63667;49.046;8.468;2023-07-30T00:13:17;2.57;;;2.00;;
142;SDS011;63667;49.046;8.468;2023-07-30T00:15:47;5.37;;;2.40;;
142;SDS011;63667;49.046;8.468;2023-07-30T00:18:15;3.20;;;2.10;;
142;SDS011;63667;49.046;8.468;2023-07-30T00:20:43;4.13;;;2.20;;
142;SDS011;63667;49.046;8.468;2023-07-30T00:23:10;2.90;;;1.90;;
142;SDS011;63667;49.046;8.468;2023-07-30T00:25:37;4.73;;;2.30;;
142;SDS011;63667;49.046;8.468;2023-07-30T00:28:04;2.70;;;2.40;;
142;SDS011;63667;49.046;8.468;2023-07-30T00:30:32;5.80;;;2.30;;
142;SDS011;63667;49.046;8.468;2023-07-30T00:32:59;3.93;;;2.30;;
142;SDS011;63667;49.046;8.468;2023-07-30T00:35:27;3.60;;;2.40;;
142;SDS011;63667;49.046;8.468;2023-07-30T00:37:54;3.20;;;2.77;;
142;SDS011;63667;49.046;8.468;2023-07-30T00:40:21;3.40;;;2.90;;
142;SDS011;63667;49.046;8.468;2023-07-30T00:42:48;10.63;;;3.07;;
142;SDS011;63667;49.046;8.468;2023-07-30T00:45:14;5.47;;;3.20;;
142;SDS011;63667;49.046;8.468;2023-07-30T00:47:43;3.33;;;3.00;;
142;SDS011;63667;49.046;8.468;2023-07-30T00:50:10;5.67;;;4.10;;
142;SDS011;63667;49.046;8.468;2023-07-30T00:52:39;8.40;;;3.93;;
142;SDS011;63667;49.046;8.468;2023-07-30T00:55:07;6.73;;;3.97;;
142;SDS011;63667;49.046;8.468;2023-07-30T00:57:36;5.00;;;3.70;;
142;SDS011;63667;49.046;8.468;2023-07-30T01:00:03;6.97;;;3.90;;
142;SDS011;63667;49.046;8.468;2023-07-30T01:02:33;7.10;;;4.23;;
142;SDS011;63667;49.046;8.468;2023-07-30T01:05:01;8.83;;;4.17;;
142;SDS011;63667;49.046;8.468;2023-07-30T01:07:30;7.40;;;4.20;;
142;SDS011;63667;49.046;8.468;2023-07-30T01:09:57;4.40;;;3.40;;
142;SDS011;63667;49.046;8.468;2023-07-30T01:12:25;8.40;;;3.80;;
142;SDS011;63667;49.046;8.468;2023-07-30T01:14:53;6.03;;;4.00;;
142;SDS011;63667;49.046;8.468;2023-07-30T01:17:21;7.00;;;3.90;;
142;SDS011;63667;49.046;8.468;2023-07-30T01:19:48;5.03;;;4.00;;
142;SDS011;63667;49.046;8.468;2023-07-30T01:22:19;5.40;;;3.70;;
142;SDS011;63667;49.046;8.468;2023-07-30T01:24:47;7.23;;;3.87;;
142;SDS011;63667;49.046;8.468;2023-07-30T01:27:19;4.53;;;4.10;;
142;SDS011;63667;49.046;8.468;2023-07-30T01:29:52;8.63;;;4.20;;
142;SDS011;63667;49.046;8.468;2023-07-30T01:32:27;4.83;;;3.60;;
142;SDS011;63667;49.046;8.468;2023-07-30T01:34:54;5.77;;;3.87;;
142;SDS011;63667;49.046;8.468;2023-07-30T01:37:22;6.60;;;3.70;;
142;SDS011;63667;49.046;8.468;2023-07-30T01:39:49;9.50;;;4.40;;
142;SDS011;63667;49.046;8.468;2023-07-30T01:42:17;7.13;;;4.10;;
142;SDS011;63667;49.046;8.468;2023-07-30T01:44:44;5.53;;;4.27;;
142;SDS011;63667;49.046;8.468;2023-07-30T01:47:11;9.67;;;4.30;;
142;SDS011;63667;49.046;8.468;2023-07-30T01:49:39;8.70;;;4.77;;
142;SDS011;63667;49.046;8.468;2023-07-30T01:52:06;7.83;;;4.17;;
142;SDS011;63667;49.046;8.468;2023-07-30T01:54:34;5.67;;;4.13;;
142;SDS011;63667;49.046;8.468;2023-07-30T01:57:02;9.63;;;4.07;;
142;SDS011;63667;49.046;8.468;2023-07-30T01:59:30;11.00;;;4.63;;
142;SDS011;63667;49.046;8.468;2023-07-30T02:01:57;5.30;;;4.30;;
142;SDS011;63667;49.046;8.468;2023-07-30T02:04:24;8.67;;;4.97;;
142;SDS011;63667;49.046;8.468;2023-07-30T02:06:52;6.00;;;4.63;;
142;SDS011;63667;49.046;8.468;2023-07-30T02:09:19;7.43;;;4.67;;
142;SDS011;63667;49.046;8.468;2023-07-30T02:11:47;7.87;;;4.50;;
142;SDS011;63667;49.046;8.468;2023-07-30T02:14:14;6.90;;;5.10;;
142;SDS011;63667;49.046;8.468;2023-07-30T02:16:41;17.27;;;5.27;;
142;SDS011;63667;49.046;8.468;2023-07-30T02:19:09;7.80;;;4.90;;
142;SDS011;63667;49.046;8.468;2023-07-30T02:21:36;8.03;;;4.60;;
142;SDS011;63667;49.046;8.468;2023-07-30T02:24:08;7.87;;;5.10;;
142;SDS011;63667;49.046;8.468;2023-07-30T02:26:37;10.20;;;5.13;;
142;SDS011;63667;49.046;8.468;2023-07-30T02:29:05;11.17;;;5.10;;
142;SDS011;63667;49.046;8.468;2023-07-30T02:31:31;16.20;;;5.80;;
142;SDS011;63667;49.046;8.468;2023-07-30T02:33:59;8.93;;;5.10;;
142;SDS011;63667;49.046;8.468;2023-07-30T02:36:26;7.30;;;4.80;;
142;SDS011;63667;49.046;8.468;2023-07-30T02:38:53;10.10;;;5.93;;
142;SDS011;63667;49.046;8.468;2023-07-30T02:41:21;9.53;;;5.80;;
142;SDS011;63667;49.046;8.468;2023-07-30T02:43:48;9.70;;;5.00;;
142;SDS011;63667;49.046;8.468;2023-07-30T02:46:15;12.80;;;4.77;;
142;SDS011;63667;49.046;8.468;2023-07-30T02:48:43;7.60;;;4.40;;
142;SDS011;63667;49.046;8.468;2023-07-30T02:51:10;8.33;;;4.80;;
142;SDS011;63667;49.046;8.468;2023-07-30T02:53:37;6.13;;;4.37;;
142;SDS011;63667;49.046;8.468;2023-07-30T02:56:07;7.80;;;4.80;;
142;SDS011;63667;49.046;8.468;2023-07-30T02:58:34;7.27;;;4.60;;
142;SDS011;63667;49.046;8.468;2023-07-30T03:01:05;6.90;;;4.90;;
142;SDS011;63667;49.046;8.468;2023-07-30T03:03:33;7.80;;;4.87;;
142;SDS011;63667;49.046;8.468;2023-07-30T03:06:00;10.20;;;5.30;;
142;SDS011;63667;49.046;8.468;2023-07-30T03:08:28;8.53;;;5.17;;
142;SDS011;63667;49.046;8.468;2023-07-30T03:10:59;7.90;;;4.60;;
142;SDS011;63667;49.046;8.468;2023-07-30T03:13:26;8.53;;;5.43;;
142;SDS011;63667;49.046;8.468;2023-07-30T03:15:53;7.73;;;5.03;;
142;SDS011;63667;49.046;8.468;2023-07-30T03:18:20;8.20;;;4.80;;
142;SDS011;63667;49.046;8.468;2023-07-30T03:20:48;6.97;;;4.80;;
142;SDS011;63667;49.046;8.468;2023-07-30T03:23:15;7.47;;;5.50;;
142;SDS011;63667;49.046;8.468;2023-07-30T03:25:42;8.27;;;5.00;;
142;SDS011;63667;49.046;8.468;2023-07-30T03:28:09;7.80;;;5.50;;
142;SDS011;63667;49.046;8.468;2023-07-30T03:30:37;8.30;;;4.90;;
142;SDS011;63667;49.046;8.468;2023-07-30T03:33:04;12.70;;;5.60;;
142;SDS011;63667;49.046;8.468;2023-07-30T03:35:32;11.90;;;6.13;;
142;SDS011;63667;49.046;8.468;2023-07-30T03:38:00;8.20;;;5.13;;
142;SDS011;63667;49.046;8.468;2023-07-30T03:40:26;12.67;;;6.00;;
142;SDS011;63667;49.046;8.468;2023-07-30T03:42:54;8.23;;;6.30;;
142;SDS011;63667;49.046;8.468;2023-07-30T03:45:21;10.77;;;6.40;;
142;SDS011;63667;49.046;8.468;2023-07-30T03:47:49;11.80;;;6.43;;
142;SDS011;63667;49.046;8.468;2023-07-30T03:50:16;12.33;;;5.67;;
142;SDS011;63667;49.046;8.468;2023-07-30T03:52:44;7.47;;;5.30;;
142;SDS011;63667;49.046;8.468;2023-07-30T03:55:12;10.27;;;5.70;;
142;SDS011;63667;49.046;8.468;2023-07-30T03:57:40;7.67;;;5.33;;
142;SDS011;63667;49.046;8.468;2023-07-30T04:00:08;7.83;;;5.10;;
142;SDS011;63667;49.046;8.468;2023-07-30T04:02:35;9.10;;;5.70;;
142;SDS011;63667;49.046;8.468;2023-07-30T04:05:03;7.53;;;4.67;;
142;SDS011;63667;49.046;8.468;2023-07-30T04:07:31;5.53;;;3.93;;
142;SDS011;63667;49.046;8.468;2023-07-30T04:09:58;6.77;;;4.70;;
142;SDS011;63667;49.046;8.468;2023-07-30T04:12:25;6.00;;;4.60;;
142;SDS011;63667;49.046;8.468;2023-07-30T04:14:52;8.20;;;4.77;;
142;SDS011;63667;49.046;8.468;2023-07-30T04:17:20;5.57;;;4.40;;
142;SDS011;63667;49.046;8.468;2023-07-30T04:19:47;5.70;;;4.53;;
142;SDS011;63667;49.046;8.468;2023-07-30T04:22:15;5.57;;;4.63;;
142;SDS011;63667;49.046;8.468;2023-07-30T04:24:42;10.90;;;4.73;;
142;SDS011;63667;49.046;8.468;2023-07-30T04:27:10;7.53;;;4.57;;
142;SDS011;63667;49.046;8.468;2023-07-30T04:29:38;9.00;;;4.47;;
142;SDS011;63667;49.046;8.468;2023-07-30T04:32:05;9.87;;;3.97;;
142;SDS011;63667;49.046;8.468;2023-07-30T04:34:32;7.00;;;4.70;;
142;SDS011;63667;49.046;8.468;2023-07-30T04:37:00;8.70;;;4.17;;
142;SDS011;63667;49.046;8.468;2023-07-30T04:39:29;7.40;;;4.40;;
142;SDS011;63667;49.046;8.468;2023-07-30T04:41:56;6.77;;;3.70;;
142;SDS011;63667;49.046;8.468;2023-07-30T04:44:23;7.87;;;4.23;;
142;SDS011;63667;49.046;8.468;2023-07-30T04:46:50;5.40;;;3.90;;
142;SDS011;63667;49.046;8.468;2023-07-30T04:49:17;7.30;;;4.53;;
142;SDS011;63667;49.046;8.468;2023-07-30T04:51:44;4.73;;;3.30;;
142;SDS011;63667;49.046;8.468;2023-07-30T04:54:12;5.73;;;4.10;;
142;SDS011;63667;49.046;8.468;2023-07-30T04:56:39;6.90;;;4.40;;
142;SDS011;63667;49.046;8.468;2023-07-30T04:59:07;5.77;;;4.10;;
142;SDS011;63667;49.046;8.468;2023-07-30T05:01:34;5.17;;;3.70;;
142;SDS011;63667;49.046;8.468;2023-07-30T05:04:01;5.53;;;3.67;;
142;SDS011;63667;49.046;8.468;2023-07-30T05:06:29;5.60;;;3.60;;
142;SDS011;63667;49.046;8.468;2023-07-30T05:08:56;6.30;;;4.00;;
142;SDS011;63667;49.046;8.468;2023-07-30T05:11:24;10.33;;;3.33;;
142;SDS011;63667;49.046;8.468;2023-07-30T05:13:51;5.37;;;3.80;;
142;SDS011;63667;49.046;8.468;2023-07-30T05:16:19;8.93;;;3.83;;
142;SDS011;63667;49.046;8.468;2023-07-30T05:18:46;5.63;;;4.20;;
142;SDS011;63667;49.046;8.468;2023-07-30T05:21:13;6.43;;;4.17;;
142;SDS011;63667;49.046;8.468;2023-07-30T05:23:40;8.03;;;3.97;;
142;SDS011;63667;49.046;8.468;2023-07-30T05:26:07;11.70;;;3.80;;
142;SDS011;63667;49.046;8.468;2023-07-30T05:28:35;5.33;;;4.10;;
142;SDS011;63667;49.046;8.468;2023-07-30T05:31:03;6.27;;;4.10;;
142;SDS011;63667;49.046;8.468;2023-07-30T05:33:30;5.70;;;4.27;;
142;SDS011;63667;49.046;8.468;2023-07-30T05:35:57;6.17;;;4.30;;
142;SDS011;63667;49.046;8.468;2023-07-30T05:38:25;4.10;;;3.40;;
142;SDS011;63667;49.046;8.468;2023-07-30T05:40:53;4.70;;;3.57;;
142;SDS011;63667;49.046;8.468;2023-07-30T05:43:20;5.87;;;3.60;;
142;SDS011;63667;49.046;8.468;2023-07-30T05:45:47;16.33;;;3.90;;
142;SDS011;63667;49.046;8.468;2023-07-30T05:48:15;8.60;;;3.90;;
142;SDS011;63667;49.046;8.468;2023-07-30T05:50:41;4.93;;;3.43;;
142;SDS011;63667;49.046;8.468;2023-07-30T05:53:08;5.53;;;3.90;;
142;SDS011;63667;49.046;8.468;2023-07-30T05:55:36;4.87;;;3.80;;
142;SDS011;63667;49.046;8.468;2023-07-30T05:58:03;7.60;;;4.27;;
142;SDS011;63667;49.046;8.468;2023-07-30T06:00:31;8.43;;;4.40;;
142;SDS011;63667;49.046;8.468;2023-07-30T06:02:58;4.53;;;3.90;;
142;SDS011;63667;49.046;8.468;2023-07-30T06:05:24;5.57;;;4.53;;
142;SDS011;63667;49.046;8.468;2023-07-30T06:07:51;10.67;;;4.40;;
142;SDS011;63667;49.046;8.468;2023-07-30T06:10:18;8.70;;;4.67;;
142;SDS011;63667;49.046;8.468;2023-07-30T06:12:46;4.27;;;3.73;;
142;SDS011;63667;49.046;8.468;2023-07-30T06:15:13;6.17;;;3.50;;
142;SDS011;63667;49.046;8.468;2023-07-30T06:17:40;7.40;;;4.50;;
142;SDS011;63667;49.046;8.468;2023-07-30T06:20:07;4.13;;;3.67;;
142;SDS011;63667;49.046;8.468;2023-07-30T06:22:34;4.63;;;4.03;;
142;SDS011;63667;49.046;8.468;2023-07-30T06:25:02;5.13;;;4.40;;
142;SDS011;63667;49.046;8.468;2023-07-30T06:27:28;4.37;;;3.83;;
142;SDS011;63667;49.046;8.468;2023-07-30T06:29:54;7.27;;;4.13;;
142;SDS011;63667;49.046;8.468;2023-07-30T06:32:21;5.83;;;4.10;;
142;SDS011;63667;49.046;8.468;2023-07-30T06:34:47;6.03;;;4.10;;
142;SDS011;63667;49.046;8.468;2023-07-30T06:37:14;7.30;;;4.00;;
142;SDS011;63667;49.046;8.468;2023-07-30T06:39:41;11.23;;;4.80;;
142;SDS011;63667;49.046;8.468;2023-07-30T06:42:08;7.30;;;4.43;;
142;SDS011;63667;49.046;8.468;2023-07-30T06:44:36;8.57;;;4.30;;
142;SDS011;63667;49.046;8.468;2023-07-30T06:47:03;16.70;;;4.57;;
142;SDS011;63667;49.046;8.468;2023-07-30T06:49:31;8.40;;;4.60;;
142;SDS011;63667;49.046;8.468;2023-07-30T06:52:00;9.57;;;4.03;;
142;SDS011;63667;49.046;8.468;2023-07-30T06:54:28;7.40;;;4.50;;
142;SDS011;63667;49.046;8.468;2023-07-30T06:56:55;6.33;;;4.00;;
142;SDS011;63667;49.046;8.468;2023-07-30T06:59:22;4.87;;;3.60;;
142;SDS011;63667;49.046;8.468;2023-07-30T07:01:50;5.23;;;3.40;;
142;SDS011;63667;49.046;8.468;2023-07-30T07:04:18;4.60;;;3.87;;
142;SDS011;63667;49.046;8.468;2023-07-30T07:06:45;9.10;;;5.10;;
142;SDS011;63667;49.046;8.468;2023-07-30T07:09:13;7.57;;;4.90;;
142;SDS011;63667;49.046;8.468;2023-07-30T07:11:40;9.27;;;4.77;;
142;SDS011;63667;49.046;8.468;2023-07-30T07:14:07;6.80;;;4.87;;
142;SDS011;63667;49.046;8.468;2023-07-30T07:16:34;7.97;;;5.27;;
142;SDS011;63667;49.046;8.468;2023-07-30T07:19:02;8.00;;;4.77;;
142;SDS011;63667;49.046;8.468;2023-07-30T07:21:29;7.90;;;5.53;;
142;SDS011;63667;49.046;8.468;2023-07-30T07:23:57;9.77;;;5.80;;
142;SDS011;63667;49.046;8.468;2023-07-30T07:26:24;7.33;;;5.53;;
142;SDS011;63667;49.046;8.468;2023-07-30T07:28:51;8.07;;;5.20;;
142;SDS011;63667;49.046;8.468;2023-07-30T07:31:19;8.10;;;5.27;;
142;SDS011;63667;49.046;8.468;2023-07-30T07:33:45;9.20;;;5.60;;
142;SDS011;63667;49.046;8.468;2023-07-30T07:36:12;8.40;;;5.97;;
142;SDS011;63667;49.046;8.468;2023-07-30T07:38:40;9.57;;;5.57;;
142;SDS011;63667;49.046;8.468;2023-07-30T07:41:07;6.30;;;4.90;;
142;SDS011;63667;49.046;8.468;2023-07-30T07:43:34;7.23;;;5.10;;
142;SDS011;63667;49.046;8.468;2023-07-30T07:46:02;6.00;;;4.73;;
142;SDS011;63667;49.046;8.468;2023-07-30T07:48:29;7.13;;;4.93;;
142;SDS011;63667;49.046;8.468;2023-07-30T07:50:56;7.93;;;5.33;;
142;SDS011;63667;49.046;8.468;2023-07-30T07:53:24;5.33;;;4.50;;
142;SDS011;63667;49.046;8.468;2023-07-30T07:55:51;5.83;;;4.63;;
142;SDS011;63667;49.046;8.468;2023-07-30T07:58:18;5.40;;;4.10;;
142;SDS011;63667;49.046;8.468;2023-07-30T08:00:46;7.57;;;4.77;;
142;SDS011;63667;49.046;8.468;2023-07-30T08:03:13;8.13;;;4.17;;
142;SDS011;63667;49.046;8.468;2023-07-30T08:05:44;5.43;;;4.10;;
142;SDS011;63667;49.046;8.468;2023-07-30T08:08:12;5.10;;;3.87;;
142;SDS011;63667;49.046;8.468;2023-07-30T08:10:38;5.00;;;4.20;;
142;SDS011;63667;49.046;8.468;2023-07-30T08:13:05;5.10;;;4.20;;
142;SDS011;63667;49.046;8.468;2023-07-30T08:15:32;6.93;;;4.03;;
142;SDS011;63667;49.046;8.468;2023-07-30T08:18:00;5.43;;;4.20;;
142;SDS011;63667;49.046;8.468;2023-07-30T08:20:27;6.27;;;4.10;;
142;SDS011;63667;49.046;8.468;2023-07-30T08:22:55;6.57;;;4.47;;
142;SDS011;63667;49.046;8.468;2023-07-30T08:25:22;4.83;;;3.80;;
142;SDS011;63667;49.046;8.468;2023-07-30T08:27:50;4.13;;;3.90;;
142;SDS011;63667;49.046;8.468;2023-07-30T08:30:18;4.90;;;3.70;;
142;SDS011;63667;49.046;8.468;2023-07-30T08:32:45;5.00;;;4.00;;
142;SDS011;63667;49.046;8.468;2023-07-30T08:35:12;4.80;;;3.83;;
142;SDS011;63667;49.046;8.468;2023-07-30T08:37:41;6.07;;;4.27;;
142;SDS011;63667;49.046;8.468;2023-07-30T08:40:09;7.83;;;5.47;;
142;SDS011;63667;49.046;8.468;2023-07-30T08:42:36;7.07;;;4.50;;
142;SDS011;63667;49.046;8.468;2023-07-30T08:45:07;6.40;;;4.13;;
142;SDS011;63667;49.046;8.468;2023-07-30T08:47:35;5.80;;;3.73;;
142;SDS011;63667;49.046;8.468;2023-07-30T08:50:05;3.77;;;3.50;;
142;SDS011;63667;49.046;8.468;2023-07-30T08:52:35;6.20;;;4.30;;
142;SDS011;63667;49.046;8.468;2023-07-30T08:55:02;5.03;;;3.87;;
142;SDS011;63667;49.046;8.468;2023-07-30T08:57:31;5.70;;;4.10;;
142;SDS011;63667;49.046;8.468;2023-07-30T09:02:31;4.60;;;3.57;;
142;SDS011;63667;49.046;8.468;2023-07-30T09:05:03;4.80;;;3.77;;
142;SDS011;63667;49.046;8.468;2023-07-30T09:07:32;3.20;;;3.00;;
142;SDS011;63667;49.046;8.468;2023-07-30T09:10:00;5.03;;;3.73;;
142;SDS011;63667;49.046;8.468;2023-07-30T09:12:31;4.20;;;3.73;;
142;SDS011;63667;49.046;8.468;2023-07-30T09:14:59;7.57;;;3.80;;
142;SDS011;63667;49.046;8.468;2023-07-30T09:17:27;6.13;;;4.03;;
142;SDS011;63667;49.046;8.468;2023-07-30T09:19:55;4.27;;;4.00;;
142;SDS011;63667;49.046;8.468;2023-07-30T09:22:31;7.03;;;5.00;;
142;SDS011;63667;49.046;8.468;2023-07-30T09:25:02;4.50;;;3.83;;
142;SDS011;63667;49.046;8.468;2023-07-30T09:27:31;9.17;;;3.60;;
142;SDS011;63667;49.046;8.468;2023-07-30T09:29:59;5.23;;;4.27;;
142;SDS011;63667;49.046;8.468;2023-07-30T09:32:27;6.10;;;4.20;;
142;SDS011;63667;49.046;8.468;2023-07-30T09:35:14;7.43;;;4.37;;
142;SDS011;63667;49.046;8.468;2023-07-30T09:37:44;7.40;;;4.30;;
142;SDS011;63667;49.046;8.468;2023-07-30T09:40:14;8.97;;;4.20;;
142;SDS011;63667;49.046;8.468;2023-07-30T09:42:45;9.37;;;4.30;;
142;SDS011;63667;49.046;8.468;2023-07-30T09:45:23;4.37;;;3.70;;
142;SDS011;63667;49.046;8.468;2023-07-30T09:47:53;4.50;;;3.60;;
142;SDS011;63667;49.046;8.468;2023-07-30T09:50:22;5.40;;;3.83;;
142;SDS011;63667;49.046;8.468;2023-07-30T09:52:50;6.03;;;4.23;;
142;SDS011;63667;49.046;8.468;2023-07-30T09:55:18;8.57;;;4.30;;
142;SDS011;63667;49.046;8.468;2023-07-30T09:57:47;6.40;;;3.60;;
142;SDS011;63667;49.046;8.468;2023-07-30T10:00:14;7.27;;;4.03;;
142;SDS011;63667;49.046;8.468;2023-07-30T10:02:45;7.27;;;4.10;;
142;SDS011;63667;49.046;8.468;2023-07-30T10:05:18;4.77;;;3.70;;
142;SDS011;63667;49.046;8.468;2023-07-30T10:07:50;4.00;;;3.60;;
142;SDS011;63667;49.046;8.468;2023-07-30T10:10:24;10.10;;;3.60;;
142;SDS011;63667;49.046;8.468;2023-07-30T10:12:54;5.90;;;3.47;;
142;SDS011;63667;49.046;8.468;2023-07-30T10:15:24;7.60;;;3.63;;
142;SDS011;63667;49.046;8.468;2023-07-30T10:17:52;3.50;;;2.90;;
142;SDS011;63667;49.046;8.468;2023-07-30T10:22:54;5.03;;;3.27;;
142;SDS011;63667;49.046;8.468;2023-07-30T10:25:27;4.00;;;2.83;;
142;SDS011;63667;49.046;8.468;2023-07-30T10:28:33;5.03;;;3.47;;
142;SDS011;63667;49.046;8.468;2023-07-30T10:31:09;4.90;;;3.03;;
142;SDS011;63667;49.046;8.468;2023-07-30T10:33:56;6.20;;;3.33;;
142;SDS011;63667;49.046;8.468;2023-07-30T10:36:31;2.90;;;2.80;;
142;SDS011;63667;49.046;8.468;2023-07-30T10:39:18;4.80;;;3.30;;
142;SDS011;63667;49.046;8.468;2023-07-30T10:41:53;3.23;;;2.70;;
142;SDS011;63667;49.046;8.468;2023-07-30T10:44:26;2.93;;;2.60;;
142;SDS011;63667;49.046;8.468;2023-07-30T10:46:56;3.87;;;2.77;;
142;SDS011;63667;49.046;8.468;2023-07-30T10:49:23;4.87;;;2.80;;
142;SDS011;63667;49.046;8.468;2023-07-30T10:51:55;3.70;;;2.70;;
142;SDS011;63667;49.046;8.468;2023-07-30T10:54:26;3.43;;;2.83;;
142;SDS011;63667;49.046;8.468;2023-07-30T10:57:02;4.90;;;3.17;;
142;SDS011;63667;49.046;8.468;2023-07-30T10:59:33;12.80;;;3.10;;
142;SDS011;63667;49.046;8.468;2023-07-30T11:02:02;3.07;;;2.73;;
142;SDS011;63667;49.046;8.468;2023-07-30T11:04:34;4.40;;;2.30;;
142;SDS011;63667;49.046;8.468;2023-07-30T11:07:01;4.00;;;2.47;;
142;SDS011;63667;49.046;8.468;2023-07-30T11:09:29;3.37;;;2.10;;
142;SDS011;63667;49.046;8.468;2023-07-30T11:11:57;2.53;;;2.13;;
142;SDS011;63667;49.046;8.468;2023-07-30T11:14:25;3.47;;;2.43;;
142;SDS011;63667;49.046;8.468;2023-07-30T11:16:53;2.43;;;2.23;;
142;SDS011;63667;49.046;8.468;2023-07-30T11:19:20;4.53;;;2.40;;
142;SDS011;63667;49.046;8.468;2023-07-30T11:21:48;2.30;;;2.00;;
142;SDS011;63667;49.046;8.468;2023-07-30T11:24:16;4.00;;;2.20;;
142;SDS011;63667;49.046;8.468;2023-07-30T11:26:43;2.50;;;1.97;;
142;SDS011;63667;49.046;8.468;2023-07-30T11:29:19;4.57;;;2.37;;
142;SDS011;63667;49.046;8.468;2023-07-30T11:31:47;6.13;;;2.30;;
142;SDS011;63667;49.046;8.468;2023-07-30T11:34:15;3.27;;;2.33;;
142;SDS011;63667;49.046;8.468;2023-07-30T11:36:44;3.40;;;2.40;;
142;SDS011;63667;49.046;8.468;2023-07-30T11:39:11;4.57;;;2.77;;
142;SDS011;63667;49.046;8.468;2023-07-30T11:41:39;3.80;;;2.27;;
142;SDS011;63667;49.046;8.468;2023-07-30T11:44:06;3.60;;;2.13;;
142;SDS011;63667;49.046;8.468;2023-07-30T11:46:34;4.73;;;2.33;;
142;SDS011;63667;49.046;8.468;2023-07-30T11:49:14;6.10;;;2.10;;
142;SDS011;63667;49.046;8.468;2023-07-30T11:52:10;2.67;;;2.23;;
142;SDS011;63667;49.046;8.468;2023-07-30T11:54:38;4.87;;;2.63;;
142;SDS011;63667;49.046;8.468;2023-07-30T11:57:05;3.87;;;2.37;;
142;SDS011;63667;49.046;8.468;2023-07-30T11:59:33;3.27;;;2.33;;
142;SDS011;63667;49.046;8.468;2023-07-30T12:02:02;3.60;;;2.17;;
142;SDS011;63667;49.046;8.468;2023-07-30T12:04:31;9.67;;;2.60;;
142;SDS011;63667;49.046;8.468;2023-07-30T12:07:09;3.93;;;2.70;;
142;SDS011;63667;49.046;8.468;2023-07-30T12:09:37;4.30;;;2.90;;
142;SDS011;63667;49.046;8.468;2023-07-30T12:12:04;4.17;;;2.20;;
142;SDS011;63667;49.046;8.468;2023-07-30T12:14:44;3.37;;;2.60;;
142;SDS011;63667;49.046;8.468;2023-07-30T12:17:14;3.90;;;2.33;;
142;SDS011;63667;49.046;8.468;2023-07-30T12:19:41;3.07;;;2.63;;
142;SDS011;63667;49.046;8.468;2023-07-30T12:22:08;2.77;;;2.30;;
142;SDS011;63667;49.046;8.468;2023-07-30T12:24:36;4.57;;;2.83;;
142;SDS011;63667;49.046;8.468;2023-07-30T12:27:03;5.73;;;3.03;;
142;SDS011;63667;49.046;8.468;2023-07-30T12:29:31;4.23;;;2.47;;
142;SDS011;63667;49.046;8.468;2023-07-30T12:31:58;3.00;;;2.70;;
142;SDS011;63667;49.046;8.468;2023-07-30T12:34:26;3.70;;;2.57;;
142;SDS011;63667;49.046;8.468;2023-07-30T12:36:54;5.10;;;2.77;;
142;SDS011;63667;49.046;8.468;2023-07-30T12:39:22;5.20;;;2.70;;
142;SDS011;63667;49.046;8.468;2023-07-30T12:41:50;4.10;;;2.87;;
142;SDS011;63667;49.046;8.468;2023-07-30T12:44:17;6.50;;;3.07;;
142;SDS011;63667;49.046;8.468;2023-07-30T12:46:44;3.87;;;2.87;;
142;SDS011;63667;49.046;8.468;2023-07-30T12:49:13;4.20;;;3.10;;
142;SDS011;63667;49.046;8.468;2023-07-30T12:51:40;11.73;;;3.07;;
142;SDS011;63667;49.046;8.468;2023-07-30T12:54:08;4.40;;;3.00;;
142;SDS011;63667;49.046;8.468;2023-07-30T12:56:35;6.17;;;3.40;;
142;SDS011;63667;49.046;8.468;2023-07-30T12:59:02;2.80;;;2.70;;
142;SDS011;63667;49.046;8.468;2023-07-30T13:01:30;8.33;;;3.37;;
142;SDS011;63667;49.046;8.468;2023-07-30T13:03:57;5.17;;;3.20;;
142;SDS011;63667;49.046;8.468;2023-07-30T13:06:25;5.67;;;3.17;;
142;SDS011;63667;49.046;8.468;2023-07-30T13:08:51;4.53;;;3.10;;
142;SDS011;63667;49.046;8.468;2023-07-30T13:11:19;7.03;;;3.10;;
142;SDS011;63667;49.046;8.468;2023-07-30T13:13:47;3.77;;;2.77;;
142;SDS011;63667;49.046;8.468;2023-07-30T13:16:14;4.70;;;3.07;;
142;SDS011;63667;49.046;8.468;2023-07-30T13:18:41;6.30;;;3.00;;
142;SDS011;63667;49.046;8.468;2023-07-30T13:21:09;12.70;;;3.73;;
142;SDS011;63667;49.046;8.468;2023-07-30T13:23:36;2.80;;;2.63;;
142;SDS011;63667;49.046;8.468;2023-07-30T13:26:03;3.50;;;3.20;;
142;SDS011;63667;49.046;8.468;2023-07-30T13:28:31;3.70;;;2.80;;
142;SDS011;63667;49.046;8.468;2023-07-30T13:30:59;5.73;;;2.90;;
142;SDS011;63667;49.046;8.468;2023-07-30T13:33:27;5.27;;;2.83;;
142;SDS011;63667;49.046;8.468;2023-07-30T13:35:53;3.40;;;2.70;;
142;SDS011;63667;49.046;8.468;2023-07-30T13:38:21;7.03;;;3.00;;
142;SDS011;63667;49.046;8.468;2023-07-30T13:40:48;3.87;;;2.60;;
142;SDS011;63667;49.046;8.468;2023-07-30T13:43:16;7.50;;;3.00;;
142;SDS011;63667;49.046;8.468;2023-07-30T13:45:43;6.57;;;2.80;;
142;SDS011;63667;49.046;8.468;2023-07-30T13:48:11;3.83;;;2.73;;
142;SDS011;63667;49.046;8.468;2023-07-30T13:50:38;5.17;;;2.77;;
142;SDS011;63667;49.046;8.468;2023-07-30T13:53:05;2.40;;;2.20;;
142;SDS011;63667;49.046;8.468;2023-07-30T13:55:33;2.80;;;2.13;;
142;SDS011;63667;49.046;8.468;2023-07-30T13:58:00;6.07;;;2.47;;
142;SDS011;63667;49.046;8.468;2023-07-30T14:00:29;6.70;;;2.97;;
142;SDS011;63667;49.046;8.468;2023-07-30T14:02:57;3.20;;;2.50;;
142;SDS011;63667;49.046;8.468;2023-07-30T14:05:24;3.73;;;2.30;;
142;SDS011;63667;49.046;8.468;2023-07-30T14:07:54;3.90;;;2.30;;
142;SDS011;63667;49.046;8.468;2023-07-30T14:10:22;3.37;;;2.60;;
142;SDS011;63667;49.046;8.468;2023-07-30T14:12:50;3.97;;;2.40;;
142;SDS011;63667;49.046;8.468;2023-07-30T14:15:17;2.80;;;2.20;;
142;SDS011;63667;49.046;8.468;2023-07-30T14:17:44;3.70;;;2.47;;
142;SDS011;63667;49.046;8.468;2023-07-30T14:20:12;4.23;;;2.60;;
142;SDS011;63667;49.046;8.468;2023-07-30T14:22:39;6.37;;;2.97;;
142;SDS011;63667;49.046;8.468;2023-07-30T14:25:07;3.17;;;2.37;;
142;SDS011;63667;49.046;8.468;2023-07-30T14:27:37;2.93;;;2.20;;
142;SDS011;63667;49.046;8.468;2023-07-30T14:30:04;3.13;;;2.23;;
142;SDS011;63667;49.046;8.468;2023-07-30T14:32:34;4.70;;;2.43;;
142;SDS011;63667;49.046;8.468;2023-07-30T14:35:02;5.33;;;2.20;;
142;SDS011;63667;49.046;8.468;2023-07-30T14:37:30;7.70;;;2.53;;
142;SDS011;63667;49.046;8.468;2023-07-30T14:39:57;2.70;;;2.20;;
142;SDS011;63667;49.046;8.468;2023-07-30T14:42:25;4.50;;;2.70;;
142;SDS011;63667;49.046;8.468;2023-07-30T14:44:52;3.17;;;2.40;;
142;SDS011;63667;49.046;8.468;2023-07-30T14:47:19;6.27;;;2.50;;
142;SDS011;63667;49.046;8.468;2023-07-30T14:49:47;6.30;;;2.10;;
142;SDS011;63667;49.046;8.468;2023-07-30T14:52:17;4.27;;;2.10;;
142;SDS011;63667;49.046;8.468;2023-07-30T14:54:44;4.30;;;2.80;;
142;SDS011;63667;49.046;8.468;2023-07-30T14:57:12;3.07;;;2.27;;
142;SDS011;63667;49.046;8.468;2023-07-30T14:59:39;3.03;;;2.30;;
142;SDS011;63667;49.046;8.468;2023-07-30T15:02:07;4.33;;;2.40;;
142;SDS011;63667;49.046;8.468;2023-07-30T15:04:34;3.73;;;2.43;;
142;SDS011;63667;49.046;8.468;2023-07-30T15:07:02;5.10;;;2.50;;
142;SDS011;63667;49.046;8.468;2023-07-30T15:09:30;4.03;;;2.00;;
142;SDS011;63667;49.046;8.468;2023-07-30T15:12:02;3.80;;;2.03;;
142;SDS011;63667;49.046;8.468;2023-07-30T15:14:33;3.17;;;2.13;;
142;SDS011;63667;49.046;8.468;2023-07-30T15:17:00;9.10;;;2.70;;
142;SDS011;63667;49.046;8.468;2023-07-30T15:19:28;6.50;;;2.30;;
142;SDS011;63667;49.046;8.468;2023-07-30T15:21:55;3.87;;;2.37;;
142;SDS011;63667;49.046;8.468;2023-07-30T15:24:22;6.00;;;2.40;;
142;SDS011;63667;49.046;8.468;2023-07-30T15:26:49;4.00;;;2.27;;